NKS1282 KFLL-KIAH
Flight info
| Callsign | NKS1282 |
|---|---|
| Flight time | 2h 14m |
| Altitude | 34000 |
| Route | BNICE2 DOLIE Y280 LEV LINKK1 |
| Aircraft | A321/M-SDE3FGHIRWY/LB1 |
Departure
| Time | 2026-05-06 20:53 |
|---|---|
| Airport | Fort Lauderdale Hollywood International Airport (KFLL) |
Arrival
| Time | 2026-05-06 23:07 |
|---|---|
| Airport | George Bush Intercontinental Airport (KIAH) |
| Time | Latitude | Longitude | Altitude | Speed | Heading |
|---|---|---|---|---|---|
| 2026-05-06 20:30 | 26.06961 | -80.14143 | 16 ft | 0 kts | 279° |
| 2026-05-06 20:45 | 26.06960 | -80.14139 | 16 ft | 3 kts | 279° |
| 2026-05-06 20:45 | 26.06956 | -80.14111 | 16 ft | 4 kts | 303° |
| 2026-05-06 20:45 | 26.06943 | -80.14096 | 18 ft | 4 kts | 293° |
| 2026-05-06 20:45 | 26.06944 | -80.14084 | 18 ft | 4 kts | 192° |
| 2026-05-06 20:46 | 26.06961 | -80.14083 | 17 ft | 4 kts | 180° |
| 2026-05-06 20:46 | 26.06968 | -80.14083 | 19 ft | 0 kts | 180° |
| 2026-05-06 20:48 | 26.06954 | -80.14083 | 16 ft | 6 kts | 180° |
| 2026-05-06 20:48 | 26.06890 | -80.14083 | 16 ft | 12 kts | 180° |
| 2026-05-06 20:48 | 26.06820 | -80.14125 | 17 ft | 12 kts | 244° |
| 2026-05-06 20:49 | 26.06817 | -80.14233 | 16 ft | 17 kts | 270° |
| 2026-05-06 20:49 | 26.06817 | -80.14386 | 16 ft | 23 kts | 270° |
| 2026-05-06 20:49 | 26.06816 | -80.14547 | 15 ft | 16 kts | 258° |
| 2026-05-06 20:49 | 26.06766 | -80.14650 | 15 ft | 16 kts | 266° |
| 2026-05-06 20:50 | 26.06767 | -80.14772 | 15 ft | 16 kts | 270° |
| 2026-05-06 20:50 | 26.06757 | -80.14896 | 17 ft | 16 kts | 233° |
| 2026-05-06 20:50 | 26.06696 | -80.14975 | 18 ft | 13 kts | 262° |
| 2026-05-06 20:50 | 26.06694 | -80.15081 | 19 ft | 16 kts | 270° |
| 2026-05-06 20:51 | 26.06693 | -80.15267 | 18 ft | 31 kts | 271° |
| 2026-05-06 20:51 | 26.06697 | -80.15512 | 16 ft | 31 kts | 270° |
| 2026-05-06 20:51 | 26.06698 | -80.15745 | 16 ft | 21 kts | 268° |
| 2026-05-06 20:51 | 26.06631 | -80.15818 | 17 ft | 15 kts | 173° |
| 2026-05-06 20:52 | 26.06589 | -80.15729 | 20 ft | 19 kts | 91° |
| 2026-05-06 20:52 | 26.06587 | -80.15338 | 22 ft | 85 kts | 90° |
| 2026-05-06 20:52 | 26.06582 | -80.14442 | 48 ft | 142 kts | 90° |
| 2026-05-06 20:52 | 26.06582 | -80.13278 | 537 ft | 149 kts | 85° |
| 2026-05-06 20:53 | 26.06640 | -80.12122 | 1222 ft | 150 kts | 88° |
| 2026-05-06 20:53 | 26.06777 | -80.10931 | 1644 ft | 164 kts | 72° |
| 2026-05-06 20:53 | 26.07367 | -80.09754 | 1788 ft | 186 kts | 58° |
| 2026-05-06 20:53 | 26.08115 | -80.08468 | 1926 ft | 209 kts | 58° |
| 2026-05-06 20:54 | 26.09121 | -80.07208 | 2050 ft | 232 kts | 35° |
| 2026-05-06 20:54 | 26.10680 | -80.06449 | 2270 ft | 256 kts | 20° |
| 2026-05-06 20:54 | 26.12386 | -80.05778 | 2841 ft | 263 kts | 20° |
| 2026-05-06 20:54 | 26.14128 | -80.05098 | 3493 ft | 268 kts | 17° |
| 2026-05-06 20:55 | 26.15980 | -80.04884 | 4134 ft | 271 kts | 351° |
| 2026-05-06 20:55 | 26.17795 | -80.05473 | 4822 ft | 273 kts | 339° |
| 2026-05-06 20:55 | 26.19594 | -80.06175 | 5507 ft | 275 kts | 339° |
| 2026-05-06 20:55 | 26.21302 | -80.07146 | 6156 ft | 278 kts | 323° |
| 2026-05-06 20:56 | 26.22673 | -80.08662 | 6791 ft | 280 kts | 306° |
| 2026-05-06 20:56 | 26.23582 | -80.10589 | 7427 ft | 283 kts | 292° |
| 2026-05-06 20:56 | 26.24300 | -80.12643 | 8071 ft | 285 kts | 293° |
| 2026-05-06 20:56 | 26.25028 | -80.14705 | 8701 ft | 288 kts | 293° |
| 2026-05-06 20:57 | 26.25597 | -80.16856 | 9285 ft | 293 kts | 282° |
| 2026-05-06 20:57 | 26.25922 | -80.19105 | 9850 ft | 296 kts | 281° |
| 2026-05-06 20:57 | 26.26249 | -80.21398 | 10252 ft | 307 kts | 282° |
| 2026-05-06 20:57 | 26.26595 | -80.23820 | 10367 ft | 326 kts | 281° |
| 2026-05-06 20:58 | 26.26964 | -80.26383 | 10488 ft | 345 kts | 281° |
| 2026-05-06 20:58 | 26.27350 | -80.29088 | 10606 ft | 362 kts | 281° |
| 2026-05-06 20:58 | 26.27751 | -80.31906 | 10845 ft | 373 kts | 281° |
| 2026-05-06 20:58 | 26.28156 | -80.34775 | 11282 ft | 377 kts | 281° |
| 2026-05-06 20:59 | 26.28565 | -80.37672 | 11781 ft | 380 kts | 281° |
| 2026-05-06 20:59 | 26.28976 | -80.40596 | 12268 ft | 383 kts | 281° |
| 2026-05-06 20:59 | 26.29389 | -80.43537 | 12776 ft | 386 kts | 282° |
| 2026-05-06 20:59 | 26.29807 | -80.46502 | 13250 ft | 389 kts | 282° |
| 2026-05-06 21:00 | 26.30223 | -80.49450 | 13732 ft | 392 kts | 282° |
| 2026-05-06 21:00 | 26.30649 | -80.52459 | 14169 ft | 394 kts | 282° |
| 2026-05-06 21:00 | 26.31077 | -80.55484 | 14622 ft | 396 kts | 282° |
| 2026-05-06 21:00 | 26.31504 | -80.58522 | 15099 ft | 398 kts | 282° |
| 2026-05-06 21:01 | 26.31930 | -80.61568 | 15568 ft | 399 kts | 281° |
| 2026-05-06 21:01 | 26.32359 | -80.64634 | 16051 ft | 400 kts | 281° |
| 2026-05-06 21:01 | 26.32791 | -80.67702 | 16528 ft | 402 kts | 281° |
| 2026-05-06 21:01 | 26.33225 | -80.70788 | 17003 ft | 403 kts | 281° |
| 2026-05-06 21:02 | 26.33659 | -80.73880 | 17478 ft | 405 kts | 281° |
| 2026-05-06 21:02 | 26.34093 | -80.76992 | 17949 ft | 407 kts | 281° |
| 2026-05-06 21:02 | 26.34525 | -80.80112 | 18406 ft | 408 kts | 281° |
| 2026-05-06 21:02 | 26.34959 | -80.83251 | 18805 ft | 410 kts | 281° |
| 2026-05-06 21:03 | 26.35393 | -80.86389 | 19211 ft | 411 kts | 281° |
| 2026-05-06 21:03 | 26.35994 | -80.89492 | 19598 ft | 409 kts | 290° |
| 2026-05-06 21:03 | 26.37100 | -80.92408 | 19979 ft | 408 kts | 300° |
| 2026-05-06 21:03 | 26.38672 | -80.95031 | 20343 ft | 408 kts | 310° |
| 2026-05-06 21:04 | 26.40645 | -80.97305 | 20716 ft | 408 kts | 317° |
| 2026-05-06 21:04 | 26.42720 | -80.99475 | 21084 ft | 409 kts | 316° |
| 2026-05-06 21:04 | 26.44795 | -81.01652 | 21446 ft | 410 kts | 316° |
| 2026-05-06 21:04 | 26.46876 | -81.03838 | 21816 ft | 411 kts | 316° |
| 2026-05-06 21:05 | 26.48960 | -81.06026 | 22174 ft | 412 kts | 316° |
| 2026-05-06 21:05 | 26.51050 | -81.08221 | 22526 ft | 413 kts | 316° |
| 2026-05-06 21:05 | 26.53141 | -81.10425 | 22860 ft | 414 kts | 316° |
| 2026-05-06 21:05 | 26.55234 | -81.12638 | 23201 ft | 415 kts | 316° |
| 2026-05-06 21:06 | 26.57330 | -81.14856 | 23546 ft | 416 kts | 316° |
| 2026-05-06 21:06 | 26.59436 | -81.17079 | 23837 ft | 417 kts | 316° |
| 2026-05-06 21:06 | 26.61546 | -81.19305 | 24141 ft | 417 kts | 315° |
| 2026-05-06 21:06 | 26.63661 | -81.21534 | 24439 ft | 418 kts | 315° |
| 2026-05-06 21:07 | 26.65777 | -81.23770 | 24710 ft | 420 kts | 315° |
| 2026-05-06 21:07 | 26.67898 | -81.26019 | 24966 ft | 421 kts | 315° |
| 2026-05-06 21:07 | 26.69994 | -81.28250 | 25235 ft | 423 kts | 315° |
| 2026-05-06 21:07 | 26.72155 | -81.30554 | 25482 ft | 425 kts | 315° |
| 2026-05-06 21:08 | 26.74271 | -81.32810 | 25721 ft | 426 kts | 315° |
| 2026-05-06 21:08 | 26.76422 | -81.35105 | 25964 ft | 428 kts | 315° |
| 2026-05-06 21:08 | 26.78579 | -81.37404 | 26215 ft | 430 kts | 315° |
| 2026-05-06 21:08 | 26.80750 | -81.39718 | 26463 ft | 431 kts | 315° |
| 2026-05-06 21:09 | 26.82922 | -81.42036 | 26718 ft | 433 kts | 315° |
| 2026-05-06 21:09 | 26.85103 | -81.44366 | 26963 ft | 434 kts | 315° |
| 2026-05-06 21:09 | 26.87293 | -81.46709 | 27219 ft | 436 kts | 314° |
| 2026-05-06 21:09 | 26.89488 | -81.49059 | 27483 ft | 437 kts | 314° |
| 2026-05-06 21:10 | 26.91692 | -81.51415 | 27738 ft | 439 kts | 314° |
| 2026-05-06 21:10 | 26.93905 | -81.53777 | 28006 ft | 440 kts | 314° |
| 2026-05-06 21:10 | 26.96121 | -81.56142 | 28312 ft | 439 kts | 314° |
| 2026-05-06 21:10 | 26.98329 | -81.58502 | 28669 ft | 438 kts | 314° |
| 2026-05-06 21:11 | 27.00534 | -81.60862 | 29030 ft | 437 kts | 314° |
| 2026-05-06 21:11 | 27.02727 | -81.63213 | 29385 ft | 436 kts | 314° |
| 2026-05-06 21:11 | 27.04917 | -81.65565 | 29726 ft | 435 kts | 314° |
| 2026-05-06 21:11 | 27.07102 | -81.67915 | 30080 ft | 434 kts | 314° |
| 2026-05-06 21:12 | 27.09280 | -81.70258 | 30381 ft | 434 kts | 314° |
| 2026-05-06 21:12 | 27.11458 | -81.72597 | 30682 ft | 433 kts | 314° |
| 2026-05-06 21:12 | 27.13628 | -81.74924 | 30976 ft | 431 kts | 314° |
| 2026-05-06 21:12 | 27.15797 | -81.77252 | 31282 ft | 430 kts | 314° |
| 2026-05-06 21:13 | 27.17954 | -81.79569 | 31579 ft | 429 kts | 314° |
| 2026-05-06 21:13 | 27.20106 | -81.81882 | 31888 ft | 428 kts | 314° |
| 2026-05-06 21:13 | 27.22248 | -81.84189 | 32190 ft | 426 kts | 314° |
| 2026-05-06 21:13 | 27.24386 | -81.86496 | 32502 ft | 425 kts | 314° |
| 2026-05-06 21:14 | 27.26416 | -81.88891 | 32814 ft | 421 kts | 306° |
| 2026-05-06 21:14 | 27.28030 | -81.91616 | 33107 ft | 418 kts | 297° |
| 2026-05-06 21:14 | 27.29165 | -81.94613 | 33386 ft | 417 kts | 288° |
| 2026-05-06 21:14 | 27.29843 | -81.97780 | 33659 ft | 416 kts | 283° |
| 2026-05-06 21:15 | 27.30432 | -82.00961 | 33931 ft | 416 kts | 283° |
| 2026-05-06 21:15 | 27.31027 | -82.04141 | 34052 ft | 415 kts | 283° |
| 2026-05-06 21:15 | 27.31623 | -82.07315 | 34060 ft | 414 kts | 283° |
| 2026-05-06 21:16 | 27.32813 | -82.13646 | 34071 ft | 413 kts | 283° |
| 2026-05-06 21:16 | 27.33991 | -82.19968 | 34073 ft | 413 kts | 283° |
| 2026-05-06 21:17 | 27.35164 | -82.26290 | 34059 ft | 413 kts | 283° |
| 2026-05-06 21:17 | 27.36328 | -82.32573 | 34068 ft | 413 kts | 283° |
| 2026-05-06 21:18 | 27.37507 | -82.38942 | 34072 ft | 413 kts | 283° |
| 2026-05-06 21:18 | 27.38668 | -82.45238 | 34075 ft | 414 kts | 283° |
| 2026-05-06 21:19 | 27.39839 | -82.51616 | 34093 ft | 414 kts | 283° |
| 2026-05-06 21:19 | 27.40989 | -82.57911 | 34096 ft | 414 kts | 283° |
| 2026-05-06 21:20 | 27.42169 | -82.64246 | 34098 ft | 413 kts | 283° |
| 2026-05-06 21:20 | 27.43367 | -82.70578 | 34078 ft | 413 kts | 283° |
| 2026-05-06 21:21 | 27.44554 | -82.76911 | 34080 ft | 414 kts | 283° |
| 2026-05-06 21:21 | 27.45728 | -82.83250 | 34084 ft | 413 kts | 283° |
| 2026-05-06 21:22 | 27.46897 | -82.89588 | 34075 ft | 413 kts | 283° |
| 2026-05-06 21:22 | 27.48067 | -82.95926 | 34076 ft | 413 kts | 283° |
| 2026-05-06 21:23 | 27.49236 | -83.02263 | 34078 ft | 413 kts | 283° |
| 2026-05-06 21:23 | 27.50402 | -83.08601 | 34074 ft | 413 kts | 283° |
| 2026-05-06 21:24 | 27.51567 | -83.14943 | 34074 ft | 413 kts | 283° |
| 2026-05-06 21:24 | 27.52725 | -83.21284 | 34073 ft | 413 kts | 282° |
| 2026-05-06 21:25 | 27.53876 | -83.27631 | 34070 ft | 413 kts | 282° |
| 2026-05-06 21:25 | 27.55027 | -83.33978 | 34071 ft | 413 kts | 282° |
| 2026-05-06 21:26 | 27.56179 | -83.40323 | 34072 ft | 413 kts | 282° |
| 2026-05-06 21:26 | 27.57326 | -83.46673 | 34075 ft | 413 kts | 282° |
| 2026-05-06 21:27 | 27.58469 | -83.53024 | 34072 ft | 414 kts | 282° |
| 2026-05-06 21:27 | 27.59612 | -83.59379 | 34072 ft | 414 kts | 282° |
| 2026-05-06 21:28 | 27.60749 | -83.65735 | 34069 ft | 414 kts | 282° |
| 2026-05-06 21:28 | 27.61883 | -83.72095 | 34070 ft | 414 kts | 282° |
| 2026-05-06 21:29 | 27.63016 | -83.78459 | 34071 ft | 414 kts | 282° |
| 2026-05-06 21:29 | 27.64152 | -83.84820 | 34073 ft | 414 kts | 282° |
| 2026-05-06 21:30 | 27.65281 | -83.91185 | 34066 ft | 414 kts | 282° |
| 2026-05-06 21:30 | 27.66393 | -83.97510 | 34068 ft | 414 kts | 282° |
| 2026-05-06 21:31 | 27.67523 | -84.03919 | 34075 ft | 414 kts | 282° |
| 2026-05-06 21:31 | 27.68640 | -84.10243 | 34072 ft | 414 kts | 282° |
| 2026-05-06 21:32 | 27.69761 | -84.16612 | 34071 ft | 414 kts | 282° |
| 2026-05-06 21:32 | 27.71416 | -84.26178 | 34071 ft | 414 kts | 282° |
| 2026-05-06 21:33 | 27.72516 | -84.32554 | 34072 ft | 414 kts | 282° |
| 2026-05-06 21:33 | 27.73631 | -84.38935 | 34071 ft | 414 kts | 282° |
| 2026-05-06 21:34 | 27.74559 | -84.44281 | 34068 ft | 414 kts | 282° |
| 2026-05-06 21:34 | 27.75652 | -84.50626 | 34068 ft | 414 kts | 281° |
| 2026-05-06 21:35 | 27.76749 | -84.57014 | 34070 ft | 414 kts | 281° |
| 2026-05-06 21:35 | 27.77845 | -84.63402 | 34071 ft | 414 kts | 281° |
| 2026-05-06 21:36 | 27.78940 | -84.69793 | 34070 ft | 414 kts | 281° |
| 2026-05-06 21:36 | 27.80033 | -84.76183 | 34068 ft | 414 kts | 281° |
| 2026-05-06 21:37 | 27.81117 | -84.82574 | 34066 ft | 414 kts | 281° |
| 2026-05-06 21:37 | 27.82199 | -84.88967 | 34066 ft | 414 kts | 281° |
| 2026-05-06 21:38 | 27.83278 | -84.95356 | 34069 ft | 414 kts | 281° |
| 2026-05-06 21:38 | 27.84367 | -85.01748 | 34067 ft | 414 kts | 281° |
| 2026-05-06 21:39 | 27.85447 | -85.08139 | 34061 ft | 414 kts | 281° |
| 2026-05-06 21:39 | 27.86517 | -85.14537 | 34056 ft | 414 kts | 281° |
| 2026-05-06 21:40 | 27.87588 | -85.20936 | 34063 ft | 414 kts | 281° |
| 2026-05-06 21:40 | 27.88844 | -85.27285 | 34063 ft | 415 kts | 288° |
| 2026-05-06 21:41 | 27.90728 | -85.33453 | 34060 ft | 415 kts | 288° |
| 2026-05-06 21:41 | 27.92600 | -85.39626 | 34062 ft | 415 kts | 288° |
| 2026-05-06 21:42 | 27.94455 | -85.45767 | 34054 ft | 415 kts | 288° |
| 2026-05-06 21:42 | 27.96320 | -85.51948 | 34054 ft | 415 kts | 288° |
| 2026-05-06 21:43 | 27.98182 | -85.58131 | 34054 ft | 415 kts | 288° |
| 2026-05-06 21:43 | 28.00045 | -85.64312 | 34068 ft | 415 kts | 288° |
| 2026-05-06 21:44 | 28.01894 | -85.70496 | 34068 ft | 414 kts | 288° |
| 2026-05-06 21:44 | 28.03739 | -85.76665 | 34062 ft | 414 kts | 288° |
| 2026-05-06 21:45 | 28.05584 | -85.82831 | 34061 ft | 413 kts | 288° |
| 2026-05-06 21:45 | 28.07428 | -85.88990 | 34052 ft | 413 kts | 288° |
| 2026-05-06 21:46 | 28.09261 | -85.95155 | 34055 ft | 413 kts | 288° |
| 2026-05-06 21:46 | 28.11089 | -86.01320 | 34053 ft | 413 kts | 288° |
| 2026-05-06 21:47 | 28.12921 | -86.07485 | 34047 ft | 413 kts | 288° |
| 2026-05-06 21:47 | 28.14754 | -86.13645 | 34050 ft | 413 kts | 288° |
| 2026-05-06 21:48 | 28.16574 | -86.19811 | 34049 ft | 413 kts | 287° |
| 2026-05-06 21:48 | 28.18398 | -86.25977 | 34048 ft | 413 kts | 287° |
| 2026-05-06 21:49 | 28.20220 | -86.32146 | 34048 ft | 413 kts | 287° |
| 2026-05-06 21:49 | 28.22033 | -86.38318 | 34048 ft | 413 kts | 287° |
| 2026-05-06 21:50 | 28.23841 | -86.44496 | 34051 ft | 413 kts | 287° |
| 2026-05-06 21:50 | 28.25655 | -86.50675 | 34042 ft | 413 kts | 287° |
| 2026-05-06 21:51 | 28.27459 | -86.56857 | 34048 ft | 413 kts | 287° |
| 2026-05-06 21:51 | 28.29262 | -86.63043 | 34047 ft | 413 kts | 287° |
| 2026-05-06 21:52 | 28.31068 | -86.69230 | 34042 ft | 413 kts | 287° |
| 2026-05-06 21:52 | 28.32864 | -86.75371 | 34042 ft | 413 kts | 287° |
| 2026-05-06 21:53 | 28.34676 | -86.81549 | 34053 ft | 412 kts | 287° |
| 2026-05-06 21:53 | 28.36482 | -86.87715 | 34046 ft | 411 kts | 287° |
| 2026-05-06 21:54 | 28.38278 | -86.93873 | 34044 ft | 410 kts | 287° |
| 2026-05-06 21:54 | 28.40062 | -87.00025 | 34046 ft | 410 kts | 287° |
| 2026-05-06 21:55 | 28.41843 | -87.06167 | 34043 ft | 409 kts | 287° |
| 2026-05-06 21:55 | 28.43624 | -87.12301 | 34036 ft | 409 kts | 287° |
| 2026-05-06 21:56 | 28.45402 | -87.18428 | 34033 ft | 408 kts | 287° |
| 2026-05-06 21:56 | 28.47177 | -87.24558 | 34023 ft | 408 kts | 287° |
| 2026-05-06 21:57 | 28.48952 | -87.30679 | 34028 ft | 408 kts | 287° |
| 2026-05-06 21:57 | 28.50714 | -87.36804 | 34032 ft | 407 kts | 287° |
| 2026-05-06 21:58 | 28.52470 | -87.42922 | 34028 ft | 407 kts | 287° |
| 2026-05-06 21:58 | 28.54222 | -87.49035 | 34025 ft | 406 kts | 287° |
| 2026-05-06 21:59 | 28.55973 | -87.55144 | 34024 ft | 406 kts | 287° |
| 2026-05-06 21:59 | 28.57707 | -87.61211 | 34021 ft | 406 kts | 287° |
| 2026-05-06 22:00 | 28.59452 | -87.67324 | 34016 ft | 406 kts | 287° |
| 2026-05-06 22:00 | 28.61183 | -87.73439 | 34014 ft | 406 kts | 286° |
| 2026-05-06 22:01 | 28.62918 | -87.79558 | 34021 ft | 406 kts | 286° |
| 2026-05-06 22:01 | 28.64661 | -87.85673 | 34016 ft | 406 kts | 286° |
| 2026-05-06 22:02 | 28.66118 | -87.90789 | 34032 ft | 405 kts | 286° |
| 2026-05-06 22:02 | 28.68116 | -87.97879 | 34015 ft | 404 kts | 286° |
| 2026-05-06 22:03 | 28.69830 | -88.03961 | 34012 ft | 403 kts | 286° |
| 2026-05-06 22:03 | 28.71537 | -88.10037 | 34005 ft | 403 kts | 286° |
| 2026-05-06 22:04 | 28.73243 | -88.16119 | 34006 ft | 403 kts | 286° |
| 2026-05-06 22:04 | 28.74948 | -88.22193 | 34005 ft | 403 kts | 286° |
| 2026-05-06 22:05 | 28.76650 | -88.28279 | 34001 ft | 403 kts | 286° |
| 2026-05-06 22:05 | 28.78345 | -88.34361 | 33996 ft | 403 kts | 286° |
| 2026-05-06 22:06 | 28.80051 | -88.40442 | 33997 ft | 403 kts | 286° |
| 2026-05-06 22:06 | 28.81746 | -88.46532 | 33996 ft | 403 kts | 285° |
| 2026-05-06 22:07 | 28.83436 | -88.52627 | 33988 ft | 403 kts | 285° |
| 2026-05-06 22:07 | 28.85123 | -88.58726 | 33990 ft | 404 kts | 285° |
| 2026-05-06 22:08 | 28.86813 | -88.64839 | 33989 ft | 404 kts | 285° |
| 2026-05-06 22:08 | 28.88499 | -88.70959 | 33990 ft | 404 kts | 284° |
| 2026-05-06 22:09 | 28.89920 | -88.77152 | 33992 ft | 403 kts | 282° |
| 2026-05-06 22:09 | 28.91170 | -88.83388 | 33990 ft | 403 kts | 281° |
| 2026-05-06 22:10 | 28.92439 | -88.89617 | 33988 ft | 403 kts | 282° |
| 2026-05-06 22:10 | 28.93757 | -88.95838 | 33981 ft | 403 kts | 282° |
| 2026-05-06 22:11 | 28.95091 | -89.02055 | 33983 ft | 403 kts | 282° |
| 2026-05-06 22:11 | 28.96406 | -89.08272 | 33997 ft | 403 kts | 282° |
| 2026-05-06 22:12 | 28.97712 | -89.14482 | 33987 ft | 402 kts | 282° |
| 2026-05-06 22:12 | 28.99010 | -89.20643 | 33983 ft | 401 kts | 282° |
| 2026-05-06 22:13 | 29.00314 | -89.26835 | 33983 ft | 401 kts | 282° |
| 2026-05-06 22:13 | 29.01605 | -89.33032 | 33980 ft | 401 kts | 281° |
| 2026-05-06 22:14 | 29.02896 | -89.39225 | 33973 ft | 401 kts | 282° |
| 2026-05-06 22:14 | 29.04190 | -89.45419 | 33972 ft | 401 kts | 282° |
| 2026-05-06 22:15 | 29.05479 | -89.51613 | 33974 ft | 401 kts | 281° |
| 2026-05-06 22:15 | 29.06762 | -89.57811 | 33967 ft | 401 kts | 281° |
| 2026-05-06 22:16 | 29.08037 | -89.64006 | 33967 ft | 401 kts | 281° |
| 2026-05-06 22:16 | 29.09317 | -89.70211 | 33965 ft | 401 kts | 281° |
| 2026-05-06 22:17 | 29.10595 | -89.76417 | 33964 ft | 401 kts | 281° |
| 2026-05-06 22:17 | 29.11872 | -89.82622 | 33964 ft | 401 kts | 281° |
| 2026-05-06 22:18 | 29.13139 | -89.88832 | 33967 ft | 401 kts | 281° |
| 2026-05-06 22:18 | 29.14404 | -89.95044 | 33973 ft | 401 kts | 281° |
| 2026-05-06 22:19 | 29.15667 | -90.01258 | 33986 ft | 401 kts | 281° |
| 2026-05-06 22:19 | 29.16926 | -90.07470 | 33984 ft | 401 kts | 281° |
| 2026-05-06 22:20 | 29.18066 | -90.13704 | 33983 ft | 400 kts | 278° |
| 2026-05-06 22:20 | 29.18860 | -90.19952 | 33980 ft | 399 kts | 276° |
| 2026-05-06 22:21 | 29.19460 | -90.25225 | 33981 ft | 399 kts | 276° |
| 2026-05-06 22:21 | 29.20347 | -90.32530 | 33976 ft | 399 kts | 277° |
| 2026-05-06 22:22 | 29.21151 | -90.38813 | 33979 ft | 399 kts | 277° |
| 2026-05-06 22:22 | 29.21816 | -90.44033 | 33976 ft | 399 kts | 277° |
| 2026-05-06 22:23 | 29.22607 | -90.50312 | 33968 ft | 398 kts | 277° |
| 2026-05-06 22:23 | 29.23399 | -90.56588 | 33963 ft | 398 kts | 277° |
| 2026-05-06 22:24 | 29.24178 | -90.62861 | 33955 ft | 398 kts | 277° |
| 2026-05-06 22:24 | 29.24947 | -90.69134 | 33978 ft | 398 kts | 277° |
| 2026-05-06 22:25 | 29.25726 | -90.75401 | 33974 ft | 397 kts | 277° |
| 2026-05-06 22:25 | 29.26507 | -90.81650 | 33971 ft | 396 kts | 276° |
| 2026-05-06 22:26 | 29.27277 | -90.87892 | 33969 ft | 396 kts | 276° |
| 2026-05-06 22:26 | 29.28033 | -90.94133 | 33963 ft | 395 kts | 276° |
| 2026-05-06 22:27 | 29.28793 | -91.00364 | 33957 ft | 395 kts | 276° |
| 2026-05-06 22:27 | 29.29551 | -91.06598 | 33956 ft | 395 kts | 276° |
| 2026-05-06 22:28 | 29.30306 | -91.12832 | 33956 ft | 395 kts | 276° |
| 2026-05-06 22:28 | 29.31056 | -91.19072 | 33957 ft | 395 kts | 276° |
| 2026-05-06 22:29 | 29.31802 | -91.25316 | 33953 ft | 395 kts | 276° |
| 2026-05-06 22:29 | 29.32552 | -91.31557 | 33951 ft | 395 kts | 276° |
| 2026-05-06 22:30 | 29.33298 | -91.37798 | 33945 ft | 395 kts | 276° |
| 2026-05-06 22:30 | 29.34037 | -91.44044 | 33945 ft | 395 kts | 276° |
| 2026-05-06 22:31 | 29.34773 | -91.50285 | 33944 ft | 395 kts | 276° |
| 2026-05-06 22:31 | 29.35493 | -91.56518 | 33946 ft | 395 kts | 276° |
| 2026-05-06 22:32 | 29.36221 | -91.62749 | 33955 ft | 394 kts | 276° |
| 2026-05-06 22:32 | 29.36950 | -91.68982 | 33947 ft | 394 kts | 276° |
| 2026-05-06 22:33 | 29.37675 | -91.75213 | 33942 ft | 394 kts | 276° |
| 2026-05-06 22:33 | 29.38397 | -91.81448 | 33943 ft | 395 kts | 276° |
| 2026-05-06 22:34 | 29.39118 | -91.87688 | 33939 ft | 395 kts | 276° |
| 2026-05-06 22:34 | 29.39842 | -91.93929 | 33940 ft | 395 kts | 275° |
| 2026-05-06 22:35 | 29.40560 | -92.00177 | 33939 ft | 395 kts | 275° |
| 2026-05-06 22:35 | 29.41269 | -92.06429 | 33939 ft | 395 kts | 275° |
| 2026-05-06 22:36 | 29.41969 | -92.12681 | 33939 ft | 396 kts | 275° |
| 2026-05-06 22:36 | 29.42677 | -92.18946 | 33939 ft | 396 kts | 275° |
| 2026-05-06 22:37 | 29.43384 | -92.25198 | 33942 ft | 395 kts | 275° |
| 2026-05-06 22:37 | 29.44080 | -92.31457 | 33940 ft | 395 kts | 275° |
| 2026-05-06 22:38 | 29.44778 | -92.37709 | 33932 ft | 395 kts | 275° |
| 2026-05-06 22:38 | 29.45473 | -92.43965 | 33931 ft | 395 kts | 275° |
| 2026-05-06 22:39 | 29.46012 | -92.50223 | 33932 ft | 394 kts | 272° |
| 2026-05-06 22:39 | 29.46265 | -92.56505 | 33930 ft | 394 kts | 270° |
| 2026-05-06 22:40 | 29.46482 | -92.62778 | 33925 ft | 394 kts | 271° |
| 2026-05-06 22:40 | 29.46750 | -92.69051 | 33937 ft | 394 kts | 271° |
| 2026-05-06 22:41 | 29.47194 | -92.78459 | 33934 ft | 393 kts | 271° |
| 2026-05-06 22:42 | 29.47478 | -92.84722 | 33932 ft | 393 kts | 271° |
| 2026-05-06 22:42 | 29.47754 | -92.90985 | 33923 ft | 393 kts | 271° |
| 2026-05-06 22:43 | 29.48028 | -92.97253 | 33929 ft | 393 kts | 271° |
| 2026-05-06 22:43 | 29.48305 | -93.03519 | 33929 ft | 393 kts | 271° |
| 2026-05-06 22:44 | 29.48579 | -93.09790 | 33919 ft | 393 kts | 271° |
| 2026-05-06 22:44 | 29.48831 | -93.16059 | 33922 ft | 393 kts | 271° |
| 2026-05-06 22:45 | 29.49076 | -93.22335 | 33920 ft | 394 kts | 271° |
| 2026-05-06 22:45 | 29.49317 | -93.28609 | 33613 ft | 394 kts | 270° |
| 2026-05-06 22:45 | 29.49439 | -93.31783 | 32590 ft | 402 kts | 270° |
| 2026-05-06 22:46 | 29.49563 | -93.34992 | 31838 ft | 403 kts | 270° |
| 2026-05-06 22:46 | 29.49690 | -93.38215 | 31088 ft | 405 kts | 270° |
| 2026-05-06 22:46 | 29.49818 | -93.41454 | 30270 ft | 407 kts | 270° |
| 2026-05-06 22:46 | 29.49946 | -93.44711 | 29378 ft | 409 kts | 269° |
| 2026-05-06 22:47 | 29.50070 | -93.47977 | 28523 ft | 410 kts | 269° |
| 2026-05-06 22:47 | 29.50191 | -93.51249 | 27661 ft | 410 kts | 269° |
| 2026-05-06 22:47 | 29.50312 | -93.54522 | 26942 ft | 409 kts | 269° |
| 2026-05-06 22:47 | 29.50434 | -93.57747 | 26432 ft | 402 kts | 269° |
| 2026-05-06 22:48 | 29.50554 | -93.60933 | 25864 ft | 396 kts | 269° |
| 2026-05-06 22:48 | 29.50670 | -93.64074 | 25298 ft | 392 kts | 269° |
| 2026-05-06 22:48 | 29.50783 | -93.67180 | 24762 ft | 387 kts | 269° |
| 2026-05-06 22:48 | 29.50894 | -93.70249 | 24221 ft | 383 kts | 269° |
| 2026-05-06 22:49 | 29.51002 | -93.73292 | 23689 ft | 379 kts | 269° |
| 2026-05-06 22:49 | 29.51108 | -93.76304 | 23100 ft | 376 kts | 269° |
| 2026-05-06 22:49 | 29.51214 | -93.79284 | 22563 ft | 371 kts | 269° |
| 2026-05-06 22:49 | 29.51317 | -93.82222 | 22040 ft | 366 kts | 269° |
| 2026-05-06 22:50 | 29.51419 | -93.85123 | 21520 ft | 362 kts | 269° |
| 2026-05-06 22:50 | 29.51519 | -93.87991 | 21198 ft | 355 kts | 269° |
| 2026-05-06 22:50 | 29.51615 | -93.90741 | 20987 ft | 345 kts | 268° |
| 2026-05-06 22:50 | 29.51714 | -93.93498 | 20702 ft | 339 kts | 268° |
| 2026-05-06 22:51 | 29.51807 | -93.96164 | 20464 ft | 338 kts | 268° |
| 2026-05-06 22:51 | 29.51899 | -93.98855 | 20077 ft | 338 kts | 268° |
| 2026-05-06 22:51 | 29.51990 | -94.01553 | 19506 ft | 339 kts | 268° |
| 2026-05-06 22:51 | 29.52080 | -94.04252 | 19015 ft | 337 kts | 268° |
| 2026-05-06 22:52 | 29.52169 | -94.06942 | 18476 ft | 341 kts | 268° |
| 2026-05-06 22:52 | 29.52254 | -94.09806 | 17811 ft | 377 kts | 268° |
| 2026-05-06 22:52 | 29.52346 | -94.12900 | 17112 ft | 394 kts | 268° |
| 2026-05-06 22:52 | 29.52450 | -94.16063 | 16427 ft | 397 kts | 269° |
| 2026-05-06 22:53 | 29.52560 | -94.19229 | 15734 ft | 396 kts | 269° |
| 2026-05-06 22:53 | 29.52671 | -94.22374 | 15235 ft | 393 kts | 269° |
| 2026-05-06 22:53 | 29.52781 | -94.25517 | 15003 ft | 395 kts | 269° |
| 2026-05-06 22:53 | 29.53037 | -94.28661 | 14770 ft | 399 kts | 279° |
| 2026-05-06 22:54 | 29.54090 | -94.31637 | 14542 ft | 409 kts | 296° |
| 2026-05-06 22:54 | 29.55643 | -94.34382 | 14119 ft | 409 kts | 298° |
| 2026-05-06 22:54 | 29.57222 | -94.37092 | 13573 ft | 407 kts | 299° |
| 2026-05-06 22:54 | 29.58804 | -94.39776 | 13013 ft | 404 kts | 299° |
| 2026-05-06 22:55 | 29.60356 | -94.42460 | 12736 ft | 403 kts | 298° |
| 2026-05-06 22:55 | 29.61865 | -94.45159 | 12488 ft | 401 kts | 297° |
| 2026-05-06 22:55 | 29.63353 | -94.47868 | 12239 ft | 400 kts | 297° |
| 2026-05-06 22:55 | 29.64827 | -94.50571 | 12002 ft | 399 kts | 297° |
| 2026-05-06 22:56 | 29.66298 | -94.53264 | 11672 ft | 395 kts | 297° |
| 2026-05-06 22:56 | 29.67757 | -94.55922 | 11030 ft | 391 kts | 297° |
| 2026-05-06 22:56 | 29.69185 | -94.58517 | 10845 ft | 375 kts | 298° |
| 2026-05-06 22:56 | 29.70549 | -94.60986 | 10727 ft | 357 kts | 298° |
| 2026-05-06 22:57 | 29.71857 | -94.63344 | 10515 ft | 343 kts | 298° |
| 2026-05-06 22:57 | 29.73118 | -94.65620 | 10345 ft | 330 kts | 298° |
| 2026-05-06 22:57 | 29.74324 | -94.67801 | 10227 ft | 316 kts | 297° |
| 2026-05-06 22:57 | 29.75475 | -94.69893 | 10118 ft | 303 kts | 298° |
| 2026-05-06 22:58 | 29.76581 | -94.71907 | 10004 ft | 291 kts | 298° |
| 2026-05-06 22:58 | 29.77646 | -94.73853 | 9890 ft | 285 kts | 298° |
| 2026-05-06 22:58 | 29.78699 | -94.75783 | 9776 ft | 284 kts | 298° |
| 2026-05-06 22:58 | 29.79737 | -94.77683 | 9654 ft | 284 kts | 298° |
| 2026-05-06 22:59 | 29.80801 | -94.79628 | 9515 ft | 283 kts | 298° |
| 2026-05-06 22:59 | 29.81833 | -94.81511 | 9149 ft | 282 kts | 298° |
| 2026-05-06 22:59 | 29.82884 | -94.83428 | 8734 ft | 284 kts | 298° |
| 2026-05-06 22:59 | 29.83943 | -94.85362 | 8431 ft | 284 kts | 299° |
| 2026-05-06 23:00 | 29.85005 | -94.87300 | 8028 ft | 286 kts | 299° |
| 2026-05-06 23:00 | 29.86056 | -94.89218 | 7808 ft | 281 kts | 299° |
| 2026-05-06 23:00 | 29.87094 | -94.91113 | 7426 ft | 279 kts | 299° |
| 2026-05-06 23:00 | 29.88129 | -94.93004 | 6967 ft | 279 kts | 299° |
| 2026-05-06 23:01 | 29.89162 | -94.94891 | 6455 ft | 276 kts | 300° |
| 2026-05-06 23:01 | 29.90180 | -94.96754 | 5740 ft | 274 kts | 300° |
| 2026-05-06 23:01 | 29.91193 | -94.98609 | 5295 ft | 273 kts | 300° |
| 2026-05-06 23:01 | 29.92203 | -95.00453 | 4874 ft | 271 kts | 300° |
| 2026-05-06 23:02 | 29.93209 | -95.02286 | 4456 ft | 270 kts | 300° |
| 2026-05-06 23:02 | 29.94207 | -95.04110 | 4041 ft | 268 kts | 300° |
| 2026-05-06 23:02 | 29.95186 | -95.05902 | 3823 ft | 258 kts | 300° |
| 2026-05-06 23:02 | 29.96117 | -95.07608 | 3748 ft | 245 kts | 300° |
| 2026-05-06 23:03 | 29.97003 | -95.09228 | 3659 ft | 234 kts | 300° |
| 2026-05-06 23:03 | 29.97854 | -95.10789 | 3575 ft | 223 kts | 299° |
| 2026-05-06 23:03 | 29.98667 | -95.12282 | 3456 ft | 218 kts | 299° |
| 2026-05-06 23:03 | 29.99250 | -95.13877 | 3298 ft | 216 kts | 280° |
| 2026-05-06 23:04 | 29.99342 | -95.15600 | 2903 ft | 214 kts | 268° |
| 2026-05-06 23:04 | 29.99341 | -95.17306 | 2601 ft | 211 kts | 268° |
| 2026-05-06 23:04 | 29.99342 | -95.18990 | 2344 ft | 206 kts | 268° |
| 2026-05-06 23:04 | 29.99344 | -95.20594 | 2071 ft | 194 kts | 268° |
| 2026-05-06 23:05 | 29.99345 | -95.22104 | 1815 ft | 183 kts | 268° |
| 2026-05-06 23:05 | 29.99345 | -95.23511 | 1580 ft | 167 kts | 268° |
| 2026-05-06 23:05 | 29.99346 | -95.24775 | 1398 ft | 151 kts | 267° |
| 2026-05-06 23:05 | 29.99346 | -95.25955 | 1205 ft | 145 kts | 267° |
| 2026-05-06 23:06 | 29.99345 | -95.26724 | 1063 ft | 144 kts | 267° |
| 2026-05-06 23:06 | 29.99344 | -95.27877 | 927 ft | 144 kts | 267° |
| 2026-05-06 23:06 | 29.99333 | -95.29039 | 757 ft | 147 kts | 267° |
| 2026-05-06 23:06 | 29.99348 | -95.30218 | 595 ft | 148 kts | 268° |
| 2026-05-06 23:07 | 29.99340 | -95.31398 | 365 ft | 147 kts | 267° |
| 2026-05-06 23:07 | 29.99342 | -95.32578 | 165 ft | 147 kts | 266° |
| 2026-05-06 23:07 | 29.99341 | -95.33705 | 108 ft | 127 kts | 270° |
| 2026-05-06 23:07 | 29.99341 | -95.34462 | 105 ft | 38 kts | 270° |
| 2026-05-06 23:08 | 29.99320 | -95.34684 | 107 ft | 26 kts | 254° |
| 2026-05-06 23:08 | 29.99244 | -95.34861 | 107 ft | 20 kts | 239° |
| 2026-05-06 23:08 | 29.99181 | -95.34982 | 107 ft | 18 kts | 231° |
| 2026-05-06 23:08 | 29.99090 | -95.35063 | 106 ft | 11 kts | 206° |
| 2026-05-06 23:09 | 29.99013 | -95.35076 | 107 ft | 12 kts | 180° |
| 2026-05-06 23:09 | 29.98927 | -95.35068 | 107 ft | 13 kts | 158° |
| 2026-05-06 23:09 | 29.98848 | -95.35048 | 107 ft | 10 kts | 181° |
| 2026-05-06 23:09 | 29.98814 | -95.35049 | 107 ft | 1 kts | 180° |
| 2026-05-06 23:10 | 29.98811 | -95.35049 | 107 ft | 0 kts | 180° |